Nearby METAR Reports

 

EGNR - Hawarden (aut), United Kingdom
Distance from station: ESE 33mi, 53km
Updated: 04/06/2020 18:50
Mostly cloudy
Mostly cloudy
 Wind from NW
Wind: NW 8 mph , 13 km/h
Temperature: 12°C
Dew Point: 9°C
Humidity: 82%
Barometer: 1001 hPa
Clouds: Mostly cloudy
Visibility: 6 miles , 10 km
Cloud details: Partly cloudy 549 m
Mostly cloudy 792 m
2020/06/04 17:50 EGNR 041750Z 32007KT 9999 SCT018 BKN026 12/09 Q1001
EGOV - Valley Raf, United Kingdom
Distance from station: W 33mi, 53km
Updated: 04/06/2020 17:50
Partly cloudy
Partly cloudy
 Wind from SW
Wind: SW 13 mph , 20 km/h
Temperature: 13°C
Dew Point: 10°C
Humidity: 82%
Barometer: 1001 hPa
Clouds: Partly cloudy
Visibility: 6 miles , 10 km
Cloud details: Mostly cloudy 1341 m
Partly cloudy 4267 m
2020/06/04 16:50 EGOV 041650Z AUTO 23011KT 9999 BKN044/// SCT140/// 13/10 Q1001
 
EGGP - Liverpool Airpor, United Kingdom
Distance from station: E 37mi, 59km
Updated: 04/06/2020 18:50
Light rain, Showers, Mostly cloudy
Light rain, Showers, Mostly cloudy
 Wind from WNW
Wind: WNW 12 mph , 19 km/h
Temperature: 12°C
Dew Point: 9°C
Humidity: 82%
Barometer: 1000 hPa
Summary: Light rain, Showers
Clouds: Mostly cloudy
Visibility: 6 miles , 10 km
Cloud details: Few Clouds 488 m
Partly cloudy 610 m
Mostly cloudy 1067 m
2020/06/04 17:50 EGGP 041750Z 29010KT 9999 7000N -SHRA FEW016 SCT020 BKN035 12/09 Q1000
EGNH - Blackpool Airpor, United Kingdom
Distance from station: NE 44mi, 72km
Updated: 04/06/2020 18:50
Nearby showers, Mostly cloudy
Nearby showers, Mostly cloudy
 Wind from WNW
Wind: WNW 18 mph , 30 km/h
Temperature: 13°C
Dew Point: 8°C
Humidity: 72%
Barometer: 1000 hPa
Summary: Nearby Showers
Clouds: Mostly cloudy
Visibility: 6 miles , 10 km
Cloud details: Few Clouds 488 m
Mostly cloudy 1250 m
2020/06/04 17:50 EGNH 041750Z 30016KT 9999 VCSH FEW016 BKN041 13/08 Q1000
 
EGNO - Wharton, United Kingdom
Distance from station: NE 47mi, 76km
Updated: 03/06/2020 15:50
NOT Current
Mostly cloudy
Mostly cloudy
 Wind from ENE
Wind: ENE 9 mph , 15 km/h
Temperature: 13°C
Dew Point: 8°C
Humidity: 72%
Barometer: 1012 hPa
Clouds: Mostly cloudy
Visibility: 6 miles , 10 km
Cloud details: Mostly cloudy 701 m
2020/06/03 14:50 EGNO 031450Z 07008KT 9999 BKN023 13/08 Q1012
EGOS - Shawbury Raf, United Kingdom
Distance from station: SE 56mi, 89km
Updated: 04/06/2020 18:20
Light rain, Showers, Mostly cloudy
Light rain, Showers, Mostly cloudy
 Wind from W
Wind: W 7 mph , 11 km/h
Temperature: 12°C
Dew Point: 10°C
Humidity: 88%
Barometer: 1000 hPa
Summary: Light rain, Showers
Clouds: Mostly cloudy
Visibility: 6 miles , 10 km
Cloud details: Partly cloudy 762 m
Mostly cloudy 1524 m
2020/06/04 17:20 EGOS 041720Z 27006KT 9999 -SHRA SCT025 BKN050 12/10 Q1000 TEMPO SCT023 RMK BLU TEMPO WHT
 
EGCC - Manchester Intl, United Kingdom
Distance from station: E 61mi, 98km
Updated: 04/06/2020 18:50
Thunderstorm
Thunderstorm
 Wind from W
Wind: W 14 mph , 22 km/h
Temperature: 12°C
Dew Point: 8°C
Humidity: 77%
Barometer: 1000 hPa
Clouds: Thunderstorm
Visibility: 6 miles , 10 km
Cloud details: Partly cloudy 610 m
Partly cloudy 732 m
Mostly cloudy 1189 m
2020/06/04 17:50 EGCC 041750Z AUTO 28012KT 9999 SCT020/// SCT024/// BKN039/// //////TCU 12/08 Q1000 TEMPO 6000 SHRA BKN014
EGNS - Isle Of Man/Rona, United Kingdom
Distance from station: NW 66mi, 107km
Updated: 04/06/2020 18:50
Partly cloudy
Partly cloudy
 Wind from NNW
Wind: NNW 9 mph , 15 km/h
Temperature: 12°C
Dew Point: 7°C
Humidity: 72%
Barometer: 1001 hPa
Clouds: Partly cloudy
Visibility: 6 miles , 10 km
Cloud details: Few Clouds 549 m
Partly cloudy 1219 m
2020/06/04 17:50 EGNS 041750Z 34008KT 310V010 9999 FEW018 SCT040 12/07 Q1001 NOSIG
 
EGNM - Leeds And Bradfo, United Kingdom
Distance from station: ENE 95mi, 153km
Updated: 04/06/2020 15:20
NOT Current
Nearby showers, Partly cloudy
Nearby showers, Partly cloudy
 Wind from varies
Wind: varies 3 mph , 6 km/h
Temperature: 10°C
Dew Point: 8°C
Humidity: 88%
Barometer: 1001 hPa
Summary: Nearby Showers
Clouds: Partly cloudy
Visibility: 4 miles , 7 km
Cloud details: Few Clouds 244 m
Partly cloudy 366 m
2020/06/04 14:20 EGNM 041420Z VRB03KT 7000 VCSH FEW008 SCT012 10/08 Q1001
EGBB - Birmingham Airpo, United Kingdom
Distance from station: ESE 100mi, 161km
Updated: 04/06/2020 18:50
Rain showers, Mostly cloudy
Rain showers, Mostly cloudy
 Wind from NW
Wind: NW 10 mph , 17 km/h
Temperature: 12°C
Dew Point: 9°C
Humidity: 82%
Barometer: 1000 hPa
Summary: Rain Showers
Clouds: Mostly cloudy
Visibility: 6 miles , 10 km
Cloud details: Few Clouds 640 m
Partly cloudy 823 m
Mostly cloudy 1006 m
2020/06/04 17:50 EGBB 041750Z 31009KT 9999 SHRA FEW021 SCT027 BKN033 12/09 Q1000 RERA